Dobrodošli na spletni strani vremenske postaje Senovo. Vse informacije so informativnega značaja, saj vremenska postaja ni del državne mreže meteoroloških postaj. AKTUALNIH OBVESTIL NI.


Sneg/Led Od: 23-02-2018 00:00 Do: 23:59 Opozorilo za: Sneg/Led Stopnja: Rumena info button

Pogled proti Armezu več informacij Pogled proti Armezu


Lisca več informacij Lisca


Radar strel več informacij blitzortung!


opozorilo za sneg/led več informacij rain snow radar


Obiščite še:

Template documentation
and downloads

And another site



Weather Underground, zgodovina - Tekstovno

Dnevni povzetek za Januar 10, 2018 Enote:  Angleško    Metrično   Obe
« Predhodni Dan
Naslednji Dan »
Dnevni Tedenski Mesečni Letni Po meri
  Višja: Nižja: Povprečje:
Temperatura: TemperatureC °F 2.7 °F 5.7 °F
Točka rosišča: DewpointC °F 1.8 °F 5 °F
Vlažnost: Humidity % 89 % 94 %
Hitrost vetra: WindSpeedKMH mph 0.0 mph 0.6 mph
Sunki vetra: WindSpeedGustKMH mph - -
Veter:- - SW
Zračni tlak: PressurehPa in 1010.0 in -
Padavine: 10.9 in    
Historical Graphs
 
 
Tabelarni podarki za Januar 10, 2018
Čas Temperatura Točka rosišča Zračni tlak Veter Hitrost vetra Sunki vetra Vlažnost Intenziteta padavin (urna)
TemperatureC °F DewpointC °F PressurehPa in Calm     Humidity % HourlyPrecipMM in
01:01 6.6 °F 6.2 °F 1018.2 in Calm     97 % 2.3 in
01:03 6.6 °F 6.2 °F 1018.2 in Calm     97 % 2.3 in
01:07 6.7 °F 6.3 °F 1018.2 in Calm   1.8 mph 97 % 2.5 in
01:09 6.7 °F 6.3 °F 1018.2 in Calm   1.8 mph 97 % 2.5 in
01:16 6.7 °F 6.3 °F 1018.2 in SSW 0.3 mph 3.5 mph 97 % 2.8 in
01:18 6.7 °F 6.3 °F 1018.2 in SW 0.5 mph 3.5 mph 97 % 2.8 in
01:23 6.7 °F 6.3 °F 1018.2 in SW 1.4 mph 4.0 mph 97 % 2.5 in
01:26 6.7 °F 6.3 °F 1018.2 in SW 1.3 mph 4.0 mph 97 % 2.5 in
01:28 6.7 °F 6.3 °F 1016.8 in SW 1.1 mph 4.0 mph 97 % 2.5 in
01:37 6.7 °F 6.3 °F 1016.8 in SW 0.3 mph 2.6 mph 97 % 2.5 in
01:42 6.7 °F 6.3 °F 1016.8 in SW 0.3 mph 2.6 mph 97 % 2.5 in
02:01 6.7 °F 6.3 °F 1016.8 in SW 0.8 mph 4.3 mph 97 % 2.3 in
02:03 6.7 °F 6.3 °F 1016.8 in SW 1.1 mph 4.7 mph 97 % 2.0 in
02:07 6.8 °F 6.3 °F 1016.8 in SW 2.6 mph 4.7 mph 97 % 2.3 in
02:17 6.8 °F 6.3 °F 1016.8 in SW 2.9 mph 4.7 mph 97 % 2.3 in
02:23 6.8 °F 6.3 °F 1016.8 in WSW 1.6 mph 4.0 mph 97 % 2.3 in
02:35 6.7 °F 6.3 °F 1016.1 in Calm   1.4 mph 97 % 2.5 in
02:41 6.7 °F 6.3 °F 1016.1 in Calm     97 % 2.8 in
03:09 6.7 °F 6.3 °F 1016.1 in SSW 1.8 mph 4.7 mph 97 % 2.3 in
03:13 6.7 °F 6.3 °F 1016.1 in WSW 0.6 mph 3.2 mph 97 % 2.0 in
03:21 6.6 °F 6.2 °F 1016.1 in Calm     97 % 1.8 in
03:23 6.6 °F 6.2 °F 1016.1 in Calm     97 % 1.8 in
03:31 6.6 °F 6.2 °F 1016.1 in Calm     97 % 1.5 in
03:44 6.6 °F 6.2 °F 1016.1 in Calm     97 % 1.5 in
03:47 6.6 °F 6.2 °F 1016.1 in Calm     97 % 1.8 in
04:07 6.6 °F 6.2 °F 1016.1 in Calm   2.1 mph 97 % 2.0 in
04:14 6.6 °F 6.2 °F 1015.1 in SSE 0.5 mph 2.6 mph 97 % 2.0 in
04:27 6.5 °F 6.1 °F 1015.1 in Calm     97 % 2.0 in
04:36 6.5 °F 6.1 °F 1015.1 in Calm     97 % 2.0 in
04:41 6.5 °F 6.1 °F 1015.1 in ENE 0.2 mph 2.6 mph 97 % 1.8 in
04:49 6.5 °F 6.1 °F 1016.1 in ENE 0.2 mph 2.1 mph 97 % 1.5 in
05:02 6.5 °F 6.1 °F 1015.1 in SW 0.6 mph 2.6 mph 97 % 1.3 in
05:03 6.5 °F 6.1 °F 1015.1 in SW 0.5 mph 2.6 mph 97 % 1.3 in
05:08 6.5 °F 6.1 °F 1015.1 in WSW 0.3 mph 3.2 mph 97 % 1.0 in
05:25 6.4 °F 5.9 °F 1015.1 in Calm     97 % 0.8 in
05:30 6.4 °F 5.9 °F 1015.1 in Calm     97 % 0.8 in
05:39 6.4 °F 5.9 °F 1015.1 in Calm     97 % 0.5 in
05:45 6.3 °F 5.8 °F 1014.1 in Calm     97 % 0.3 in
05:58 6.3 °F 5.8 °F 1015.1 in Calm     97 % 0.3 in
06:03 6.2 °F 5.8 °F 1015.1 in WSW 0.2 mph 4.3 mph 97 % 0.3 in
06:04 6.2 °F 5.8 °F 1015.1 in WSW 0.5 mph 5.8 mph 97 % 0.3 in
06:53 6.3 °F 5.8 °F 1014.1 in Calm     97 % 0.3 in
06:59 6.2 °F 5.8 °F 1014.1 in Calm     97 % 0.3 in
07:21 6.2 °F 5.8 °F 1014.1 in NE 1.0 mph 4.3 mph 97 % 0.3 in
07:43 6.3 °F 6.0 °F 1015.1 in WNW 3.1 mph 6.9 mph 98 % 0.3 in
08:11 6.3 °F 6.0 °F 1015.1 in SW 0.5 mph 2.1 mph 98 % 0.3 in
08:16 6.3 °F 6.0 °F 1014.1 in Calm     98 % 0.3 in
08:18 6.3 °F 6.0 °F 1014.1 in Calm     98 % 0.3 in
08:39 6.4 °F 6.1 °F 1015.1 in SSW 0.5 mph 3.2 mph 98 % 0.0 in
09:01 6.4 °F 6.1 °F 1014.1 in Calm     98 % 0.3 in
09:38 6.9 °F 6.6 °F 1013.1 in South 1.1 mph 3.2 mph 98 % 0.3 in
10:49 7.9 °F 7.6 °F 1013.1 in SSW 2.7 mph 4.7 mph 98 % 0.0 in
11:08 8.3 °F 8.0 °F 1012.1 in SSW 1.4 mph 5.0 mph 98 % 0.0 in
12:29 9.1 °F 8.7 °F 1012.1 in SW 2.4 mph 6.1 mph 97 % 0.0 in
13:02 10.0 °F 9.6 °F 1012.1 in West 5.3 mph 13.0 mph 97 % 0.0 in
13:19 9.7 °F 9.2 °F 1012.1 in SW 6.4 mph 13.0 mph 97 % 0.0 in
13:50 9.7 °F 8.9 °F 1011.1 in SSW 4.7 mph 6.9 mph 95 % 0.0 in
13:59 9.7 °F 8.9 °F 1011.1 in SSW 3.5 mph 8.7 mph 95 % 0.0 in
14:15 10.0 °F 9.1 °F 1011.1 in SW 5.0 mph 9.7 mph 94 % 0.0 in
14:45 10.2 °F 8.9 °F 1010.0 in SE 3.5 mph 6.4 mph 92 % 0.0 in
15:22 9.7 °F 8.1 °F 1010.0 in SSE 3.4 mph 9.7 mph 90 % 0.0 in
15:28 9.4 °F 7.8 °F 1010.0 in SSE 2.7 mph 7.2 mph 90 % 0.0 in
15:33 9.1 °F 7.4 °F 1010.0 in South 2.7 mph 7.2 mph 89 % 0.0 in
15:37 9.0 °F 7.3 °F 1010.0 in WSW 1.0 mph 4.3 mph 89 % 0.0 in
15:42 8.8 °F 7.1 °F 1010.0 in SW 0.2 mph 3.2 mph 89 % 0.0 in
15:47 8.6 °F 6.9 °F 1010.0 in ESE 0.2 mph 5.8 mph 89 % 0.0 in
15:53 8.5 °F 6.8 °F 1010.0 in SSE 1.0 mph 5.8 mph 89 % 0.0 in
15:58 8.3 °F 6.6 °F 1011.1 in SSW 0.6 mph 4.0 mph 89 % 0.0 in
16:03 8.1 °F 6.4 °F 1011.1 in SSW 0.2 mph 1.8 mph 89 % 0.0 in
16:10 7.8 °F 6.1 °F 1011.1 in West 0.6 mph 4.7 mph 89 % 0.0 in
16:17 7.6 °F 5.9 °F 1011.1 in WNW 3.5 mph 5.8 mph 89 % 0.0 in
16:24 7.4 °F 5.7 °F 1011.1 in NW 1.4 mph 5.0 mph 89 % 0.0 in
16:31 7.1 °F 5.4 °F 1011.1 in NW 0.3 mph 3.5 mph 89 % 0.0 in
16:37 6.8 °F 5.3 °F 1011.1 in Calm     90 % 0.0 in
16:42 6.7 °F 5.2 °F 1011.1 in Calm     90 % 0.0 in
16:47 6.4 °F 4.9 °F 1011.1 in Calm     90 % 0.0 in
16:53 6.2 °F 4.7 °F 1011.1 in Calm   2.1 mph 90 % 0.0 in
17:01 5.8 °F 4.3 °F 1012.1 in Calm     90 % 0.0 in
17:11 5.6 °F 4.1 °F 1012.1 in Calm     90 % 0.0 in
17:20 5.3 °F 3.8 °F 1011.1 in Calm     90 % 0.0 in
17:26 5.1 °F 3.6 °F 1011.1 in Calm   1.8 mph 90 % 0.0 in
17:37 4.8 °F 3.4 °F 1011.1 in Calm     91 % 0.0 in
17:46 4.7 °F 3.3 °F 1011.1 in WSW 0.8 mph 4.0 mph 91 % 0.0 in
17:51 4.5 °F 3.2 °F 1011.1 in WSW 0.8 mph 4.0 mph 91 % 0.0 in
17:57 4.4 °F 3.1 °F 1011.1 in Calm     91 % 0.0 in
18:04 4.2 °F 2.9 °F 1011.1 in Calm     91 % 0.0 in
18:10 4.1 °F 2.8 °F 1011.1 in Calm     91 % 0.0 in
18:15 4.0 °F 2.7 °F 1012.1 in WSW 0.2 mph 2.6 mph 91 % 0.0 in
18:23 3.8 °F 2.6 °F 1012.1 in WSW 0.2 mph 2.6 mph 92 % 0.0 in
18:33 3.8 °F 2.6 °F 1012.1 in Calm     92 % 0.0 in
18:41 3.7 °F 2.5 °F 1012.1 in NW 0.2 mph 2.1 mph 92 % 0.0 in
18:46 3.6 °F 2.4 °F 1012.1 in NW 0.2 mph 2.1 mph 92 % 0.0 in
18:52 3.6 °F 2.6 °F 1012.1 in Calm     93 % 0.0 in
19:01 3.6 °F 2.6 °F 1012.1 in Calm     93 % 0.0 in
19:06 3.5 °F 2.5 °F 1012.1 in Calm     93 % 0.0 in
19:15 3.4 °F 2.4 °F 1012.1 in Calm     93 % 0.0 in
19:29 3.2 °F 2.2 °F 1012.1 in Calm     93 % 0.0 in
19:42 2.9 °F 2.1 °F 1012.1 in Calm     94 % 0.0 in
19:47 2.8 °F 1.9 °F 1012.1 in Calm     94 % 0.0 in
19:53 2.8 °F 1.9 °F 1012.1 in Calm     94 % 0.0 in
19:59 2.7 °F 1.8 °F 1012.1 in Calm     94 % 0.0 in
20:06 2.7 °F 1.8 °F 1012.1 in Calm     94 % 0.0 in
20:13 2.7 °F 1.8 °F 1012.1 in Calm     94 % 0.0 in
20:41 2.7 °F 1.8 °F 1012.1 in Calm     94 % 0.0 in
20:47 2.7 °F 2.0 °F 1012.1 in Calm     95 % 0.0 in
20:56 2.7 °F 2.0 °F 1012.1 in Calm     95 % 0.0 in
21:02 2.8 °F 2.1 °F 1012.1 in Calm     95 % 0.0 in
21:15 2.8 °F 2.1 °F 1012.1 in Calm     95 % 0.0 in
21:32 2.9 °F 2.2 °F 1012.1 in Calm     95 % 0.0 in
21:37 2.9 °F 2.3 °F 1012.1 in Calm     96 % 0.0 in
21:44 3.0 °F 2.3 °F 1012.1 in Calm     95 % 0.0 in
21:54 3.0 °F 2.3 °F 1012.1 in Calm     95 % 0.0 in
22:06 3.1 °F 2.5 °F 1011.1 in Calm   1.8 mph 96 % 0.0 in
22:11 3.2 °F 2.6 °F 1011.1 in Calm     96 % 0.0 in
22:15 3.3 °F 2.7 °F 1011.1 in Calm     96 % 0.0 in
22:17 3.3 °F 2.7 °F 1011.1 in Calm     96 % 0.0 in
22:27 3.4 °F 2.8 °F 1012.1 in Calm     96 % 0.0 in
22:33 3.5 °F 2.9 °F 1012.1 in Calm     96 % 0.0 in
22:38 3.6 °F 3.0 °F 1012.1 in SSW 0.3 mph 3.2 mph 96 % 0.0 in
22:48 3.7 °F 3.1 °F 1012.1 in Calm     96 % 0.0 in
22:57 3.8 °F 3.2 °F 1012.1 in Calm     96 % 0.0 in
23:04 3.8 °F 3.4 °F 1012.1 in Calm     97 % 0.0 in
23:12 3.9 °F 3.4 °F 1012.1 in Calm     97 % 0.0 in
23:17 4.0 °F 3.4 °F 1012.1 in Calm     96 % 0.0 in
23:25 4.0 °F 3.4 °F 1012.1 in Calm     96 % 0.0 in
23:41 4.1 °F 3.7 °F 1012.1 in Calm     97 % 0.0 in
23:51 4.2 °F 3.8 °F 1012.1 in Calm     97 % 0.0 in
23:57 4.3 °F 3.9 °F 1012.1 in Calm     97 % 0.0 in
Vremenska postaja Senovo
Podatki zbrani iz Weather Underground - 2 mb

Script developed by  Jim McMurry - jmcmurry@mwt.net Adapted for the template by  Wim van der Kuil - Leuven-Template.eu

Vremenski podatki so objavljeni na:

European Weather Network

WeatherCloud

Weather Underground

AWEKAS

HAMweather, WeatherForYou, PWS Weather

MapView

Geostik

Slovenia weather network

Oprema, ki se uporablja:

Vremenski program
Cumulus

Vremenski server
Asus

Cumulus

Asus